SBULSBGO

Guest
Details From SBUL - TEN CEL AV CESAR BOMBONATO
To SBGO - Santo Genoveva
Flight Number -
Tags generated
Created
Modified
Stats Distance 147 nm / 272 km
Max Altitude 7,100 ft / 2,164 m
Waypoints 4
Social Downloads 1
Likes 0
Share VATSIM

Download

Looking for another format? Having issues loading an existing format? Contact us
Advertisement - Login to hide

Notes

Basic altitude profile: - Ascent Rate: 2500ft/min - Ascent Speed: 250kts - Cruise Altitude: 35000ft - Cruise Speed: 420kts - Descent Rate: 1500ft/min - Descent Speed: 250kts Options: - Use NATs: yes - Use PACOTS: yes - Use low airways: yes - Use high airways: yes

Route

SBUL GUARI W24 GAZAR SBGO

ID Type Via Altitude Latitude Longitude Leg Dist Tot Dist Heading (true) Name
O SBUL APT - 0 ft / 0 m -18.88284˚ -48.22559˚ - 0 nm - TEN CEL AV CESAR BOMBONATO
GUARI FIX - 7,100 ft / 2,164 m -18.57883˚ -48.36633˚ 19 nm 19 nm 336° / 336° -
GAZAR FIX W24 (AWY-LO) 5,800 ft / 1,768 m -17.04883˚ -49.03550˚ 99 nm 119 nm 337° / 337° -
O SBGO APT - 0 ft / 0 m -16.63203˚ -49.22069˚ 27 nm 146 nm 337° / 337° Santo Genoveva

Altitude Profile

Advertisement - Login to hide

SBUL

Details ICAO SBUL (UDI)
Name TEN CEL AV CESAR BOMBONATO
Region Brazil
Timezone America/Sao_Paulo (UTC-3.0)
Stats Elevation 3,094 ft / 943 m (AMSL)
Location -18.882843° -48.225593°
Runways 1
Magnetic Variation 21.317° W

METAR

SBUL 180700Z 10008KT CAVOK 16/13 Q1025

Decode

TAF

TAF SBUL 180222Z 1806/1818 10010KT CAVOK TN17/1808Z TX26/1817Z BECMG 1811/1813 07007KT BECMG 1814/1816 05005KT RMK PGQ

Decode

Departure Runways

ID Width Length Bearing (true) Bearing (mag) Surface Threshold Offset Overrun Length
04 148 ft / 45 m 6,418 ft / 1,956 m 22.56° 43.88° Asphalt 0 ft / 0 m 0 ft / 0 m
22 148 ft / 45 m 6,418 ft / 1,956 m 202.55° 223.87° Asphalt 0 ft / 0 m 0 ft / 0 m

SBGO

Details ICAO SBGO (GYN)
Name Santo Genoveva
Region Brazil
Timezone America/Sao_Paulo (UTC-3.0)
Stats Elevation 2,450 ft / 747 m (AMSL)
Location -16.632032° -49.220686°
Runways 1
Magnetic Variation 21.047° W

METAR

SBGO 180700Z 00000KT CAVOK 15/13 Q1024

Decode

TAF

TAF SBGO 180400Z 1806/1906 12005KT CAVOK TN14/1808Z TX25/1818Z BECMG 1813/1815 09011KT FEW040 BECMG 1816/1818 08009KT SCT045 BECMG 1819/1821 11005KT CAVOK BECMG 1904/1906 00000KT RMK PEW

Decode

Destination Runways

ID Width Length Bearing (true) Bearing (mag) Surface Threshold Offset Overrun Length
14 148 ft / 45 m 8,208 ft / 2,502 m 120.42° 141.47° Asphalt 0 ft / 0 m 0 ft / 0 m
32 148 ft / 45 m 8,208 ft / 2,502 m 300.41° 321.46° Asphalt 980 ft / 299 m 0 ft / 0 m

Popular Alternatives